sensor_id;sensor_type;location;lat;lon;timestamp;pressure;altitude;pressure_sealevel;temperature;humidity
36502;BME280;25393;46.108;3.390;2023-03-01T00:01:22;98453.22;;;0.46;68.97
36502;BME280;25393;46.108;3.390;2023-03-01T00:03:50;98459.47;;;0.43;69.77
36502;BME280;25393;46.108;3.390;2023-03-01T00:06:18;98460.72;;;0.38;69.95
36502;BME280;25393;46.108;3.390;2023-03-01T00:08:45;98456.06;;;0.29;70.00
36502;BME280;25393;46.108;3.390;2023-03-01T00:13:48;98456.06;;;0.29;70.56
36502;BME280;25393;46.108;3.390;2023-03-01T00:16:21;98439.31;;;0.19;70.55
36502;BME280;25393;46.108;3.390;2023-03-01T00:18:48;98455.41;;;0.25;70.69
36502;BME280;25393;46.108;3.390;2023-03-01T00:21:15;98457.75;;;0.30;70.89
36502;BME280;25393;46.108;3.390;2023-03-01T00:23:41;98447.06;;;0.20;70.82
36502;BME280;25393;46.108;3.390;2023-03-01T00:26:11;98452.97;;;0.36;71.20
36502;BME280;25393;46.108;3.390;2023-03-01T00:28:38;98453.81;;;0.37;71.07
36502;BME280;25393;46.108;3.390;2023-03-01T00:31:11;98449.25;;;0.40;71.07
36502;BME280;25393;46.108;3.390;2023-03-01T00:33:38;98447.56;;;0.39;70.80
36502;BME280;25393;46.108;3.390;2023-03-01T00:36:05;98441.50;;;0.39;70.89
36502;BME280;25393;46.108;3.390;2023-03-01T00:38:38;98452.66;;;0.55;71.12
36502;BME280;25393;46.108;3.390;2023-03-01T00:41:13;98454.34;;;0.56;70.57
36502;BME280;25393;46.108;3.390;2023-03-01T00:43:40;98459.84;;;0.52;70.35
36502;BME280;25393;46.108;3.390;2023-03-01T00:46:10;98454.16;;;0.59;71.06
36502;BME280;25393;46.108;3.390;2023-03-01T00:48:37;98458.81;;;0.54;70.97
36502;BME280;25393;46.108;3.390;2023-03-01T00:51:12;98452.94;;;0.50;70.43
36502;BME280;25393;46.108;3.390;2023-03-01T00:53:38;98451.25;;;0.49;71.23
36502;BME280;25393;46.108;3.390;2023-03-01T00:56:07;98439.66;;;0.41;70.69
36502;BME280;25393;46.108;3.390;2023-03-01T00:58:35;98447.84;;;0.49;70.87
36502;BME280;25393;46.108;3.390;2023-03-01T01:01:20;98446.03;;;0.49;70.26
36502;BME280;25393;46.108;3.390;2023-03-01T01:04:01;98452.78;;;0.39;70.74
36502;BME280;25393;46.108;3.390;2023-03-01T01:06:31;98447.38;;;0.42;70.49
36502;BME280;25393;46.108;3.390;2023-03-01T01:08:59;98449.31;;;0.39;71.03
36502;BME280;25393;46.108;3.390;2023-03-01T01:11:27;98445.34;;;0.33;71.17
36502;BME280;25393;46.108;3.390;2023-03-01T01:13:55;98430.56;;;0.20;71.24
36502;BME280;25393;46.108;3.390;2023-03-01T01:16:24;98443.66;;;0.32;71.13
36502;BME280;25393;46.108;3.390;2023-03-01T01:18:51;98421.91;;;0.19;71.32
36502;BME280;25393;46.108;3.390;2023-03-01T01:21:19;98430.44;;;0.21;71.30
36502;BME280;25393;46.108;3.390;2023-03-01T01:23:46;98434.69;;;0.10;71.51
36502;BME280;25393;46.108;3.390;2023-03-01T01:26:20;98426.94;;;0.08;71.99
36502;BME280;25393;46.108;3.390;2023-03-01T01:28:47;98441.66;;;0.09;72.43
36502;BME280;25393;46.108;3.390;2023-03-01T01:31:15;98433.06;;;0.07;72.22
36502;BME280;25393;46.108;3.390;2023-03-01T01:33:42;98389.53;;;-0.19;72.70
36502;BME280;25393;46.108;3.390;2023-03-01T01:36:08;98419.50;;;-0.12;72.87
36502;BME280;25393;46.108;3.390;2023-03-01T01:38:36;98421.47;;;-0.16;72.85
36502;BME280;25393;46.108;3.390;2023-03-01T01:41:10;98425.44;;;-0.24;73.34
36502;BME280;25393;46.108;3.390;2023-03-01T01:43:46;98429.34;;;-0.31;73.81
36502;BME280;25393;46.108;3.390;2023-03-01T01:46:31;98419.50;;;-0.40;73.25
36502;BME280;25393;46.108;3.390;2023-03-01T01:49:02;98417.47;;;-0.49;74.00
36502;BME280;25393;46.108;3.390;2023-03-01T01:51:36;98413.34;;;-0.54;74.33
36502;BME280;25393;46.108;3.390;2023-03-01T01:54:23;98419.94;;;-0.48;74.19
36502;BME280;25393;46.108;3.390;2023-03-01T01:56:58;98408.47;;;-0.60;74.70
36502;BME280;25393;46.108;3.390;2023-03-01T01:59:27;98400.59;;;-0.58;75.20
36502;BME280;25393;46.108;3.390;2023-03-01T02:01:54;98401.00;;;-0.50;74.86
36502;BME280;25393;46.108;3.390;2023-03-01T02:04:21;98396.25;;;-0.43;75.24
36502;BME280;25393;46.108;3.390;2023-03-01T02:06:58;98406.38;;;-0.53;75.38
36502;BME280;25393;46.108;3.390;2023-03-01T02:09:26;98392.22;;;-0.63;75.19
36502;BME280;25393;46.108;3.390;2023-03-01T02:11:53;98386.44;;;-0.68;75.29
36502;BME280;25393;46.108;3.390;2023-03-01T02:14:20;98395.66;;;-0.63;75.56
36502;BME280;25393;46.108;3.390;2023-03-01T02:16:47;98393.25;;;-0.66;75.63
36502;BME280;25393;46.108;3.390;2023-03-01T02:19:27;98398.25;;;-0.63;75.98
36502;BME280;25393;46.108;3.390;2023-03-01T02:22:25;98385.34;;;-0.64;75.85
36502;BME280;25393;46.108;3.390;2023-03-01T02:27:40;98387.75;;;-0.75;76.59
36502;BME280;25393;46.108;3.390;2023-03-01T02:30:09;98371.28;;;-0.76;76.59
36502;BME280;25393;46.108;3.390;2023-03-01T02:32:40;98368.09;;;-0.81;76.83
36502;BME280;25393;46.108;3.390;2023-03-01T02:35:13;98369.59;;;-0.77;77.13
36502;BME280;25393;46.108;3.390;2023-03-01T02:37:42;98362.91;;;-0.81;77.46
36502;BME280;25393;46.108;3.390;2023-03-01T02:40:13;98353.97;;;-0.77;78.11
36502;BME280;25393;46.108;3.390;2023-03-01T02:42:54;98354.16;;;-0.80;77.89
36502;BME280;25393;46.108;3.390;2023-03-01T02:45:22;98355.94;;;-0.66;77.83
36502;BME280;25393;46.108;3.390;2023-03-01T02:47:49;98344.59;;;-0.79;77.95
36502;BME280;25393;46.108;3.390;2023-03-01T02:53:28;98341.75;;;-0.61;77.53
36502;BME280;25393;46.108;3.390;2023-03-01T02:56:01;98340.13;;;-0.63;77.75
36502;BME280;25393;46.108;3.390;2023-03-01T02:58:28;98332.25;;;-0.62;77.89
36502;BME280;25393;46.108;3.390;2023-03-01T03:00:55;98338.09;;;-0.58;77.70
36502;BME280;25393;46.108;3.390;2023-03-01T03:03:22;98331.41;;;-0.62;77.63
36502;BME280;25393;46.108;3.390;2023-03-01T03:05:49;98326.19;;;-0.62;77.73
36502;BME280;25393;46.108;3.390;2023-03-01T03:08:15;98344.34;;;-0.61;77.75
36502;BME280;25393;46.108;3.390;2023-03-01T03:10:50;98336.81;;;-0.65;77.21
36502;BME280;25393;46.108;3.390;2023-03-01T03:13:16;98342.94;;;-0.52;77.22
36502;BME280;25393;46.108;3.390;2023-03-01T03:15:43;98329.56;;;-0.60;76.98
36502;BME280;25393;46.108;3.390;2023-03-01T03:18:13;98348.13;;;-0.66;77.88
36502;BME280;25393;46.108;3.390;2023-03-01T03:20:41;98338.28;;;-0.61;78.08
36502;BME280;25393;46.108;3.390;2023-03-01T03:23:10;98327.59;;;-0.57;77.36
36502;BME280;25393;46.108;3.390;2023-03-01T03:25:37;98323.69;;;-0.64;77.66
36502;BME280;25393;46.108;3.390;2023-03-01T03:28:05;98330.94;;;-0.55;77.40
36502;BME280;25393;46.108;3.390;2023-03-01T03:30:38;98328.16;;;-0.66;77.54
36502;BME280;25393;46.108;3.390;2023-03-01T03:33:07;98335.13;;;-0.66;77.95
36502;BME280;25393;46.108;3.390;2023-03-01T03:35:46;98317.19;;;-0.71;77.92
36502;BME280;25393;46.108;3.390;2023-03-01T03:38:15;98317.66;;;-0.78;78.17
36502;BME280;25393;46.108;3.390;2023-03-01T03:40:47;98322.03;;;-0.65;78.09
36502;BME280;25393;46.108;3.390;2023-03-01T03:43:21;98318.13;;;-0.72;77.27
36502;BME280;25393;46.108;3.390;2023-03-01T03:45:49;98322.56;;;-0.74;77.86
36502;BME280;25393;46.108;3.390;2023-03-01T03:48:17;98301.56;;;-0.85;77.88
36502;BME280;25393;46.108;3.390;2023-03-01T03:50:49;98302.94;;;-0.79;77.80
36502;BME280;25393;46.108;3.390;2023-03-01T03:53:16;98309.44;;;-0.86;77.75
36502;BME280;25393;46.108;3.390;2023-03-01T03:55:42;98316.22;;;-0.84;77.71
36502;BME280;25393;46.108;3.390;2023-03-01T03:58:11;98316.34;;;-0.85;77.67
36502;BME280;25393;46.108;3.390;2023-03-01T04:00:40;98317.19;;;-0.85;77.72
36502;BME280;25393;46.108;3.390;2023-03-01T04:03:08;98314.72;;;-0.88;77.48
36502;BME280;25393;46.108;3.390;2023-03-01T04:05:35;98305.63;;;-0.95;77.61
36502;BME280;25393;46.108;3.390;2023-03-01T04:08:02;98315.38;;;-0.84;77.20
36502;BME280;25393;46.108;3.390;2023-03-01T04:10:31;98302.94;;;-0.93;77.06
36502;BME280;25393;46.108;3.390;2023-03-01T04:12:58;98292.78;;;-1.12;77.77
36502;BME280;25393;46.108;3.390;2023-03-01T04:15:25;98282.00;;;-1.20;77.95
36502;BME280;25393;46.108;3.390;2023-03-01T04:17:53;98296.66;;;-1.19;78.01
36502;BME280;25393;46.108;3.390;2023-03-01T04:20:24;98298.53;;;-1.21;78.41
36502;BME280;25393;46.108;3.390;2023-03-01T04:22:59;98295.84;;;-1.20;78.48
36502;BME280;25393;46.108;3.390;2023-03-01T04:25:38;98284.94;;;-1.26;79.33
36502;BME280;25393;46.108;3.390;2023-03-01T04:28:05;98294.25;;;-1.22;79.61
36502;BME280;25393;46.108;3.390;2023-03-01T04:30:32;98285.59;;;-1.23;79.79
36502;BME280;25393;46.108;3.390;2023-03-01T04:33:06;98280.75;;;-1.29;79.99
36502;BME280;25393;46.108;3.390;2023-03-01T04:35:34;98285.53;;;-1.21;79.90
36502;BME280;25393;46.108;3.390;2023-03-01T04:38:01;98285.44;;;-1.20;80.44
36502;BME280;25393;46.108;3.390;2023-03-01T04:40:28;98298.16;;;-1.15;80.52
36502;BME280;25393;46.108;3.390;2023-03-01T04:42:54;98288.78;;;-1.18;80.46
36502;BME280;25393;46.108;3.390;2023-03-01T04:45:21;98287.56;;;-1.12;80.17
36502;BME280;25393;46.108;3.390;2023-03-01T04:47:50;98285.53;;;-1.07;80.26
36502;BME280;25393;46.108;3.390;2023-03-01T04:50:19;98288.91;;;-0.91;79.14
36502;BME280;25393;46.108;3.390;2023-03-01T04:52:50;98289.09;;;-0.80;78.98
36502;BME280;25393;46.108;3.390;2023-03-01T04:55:16;98272.09;;;-0.99;79.42
36502;BME280;25393;46.108;3.390;2023-03-01T04:57:46;98278.94;;;-0.98;79.88
36502;BME280;25393;46.108;3.390;2023-03-01T05:00:13;98285.56;;;-0.93;79.59
36502;BME280;25393;46.108;3.390;2023-03-01T05:08:00;98298.84;;;-0.83;79.53
36502;BME280;25393;46.108;3.390;2023-03-01T05:10:28;98297.81;;;-0.81;79.42
36502;BME280;25393;46.108;3.390;2023-03-01T05:12:58;98296.53;;;-0.74;79.43
36502;BME280;25393;46.108;3.390;2023-03-01T05:15:26;98279.44;;;-0.78;79.55
36502;BME280;25393;46.108;3.390;2023-03-01T05:17:55;98294.22;;;-0.64;79.12
36502;BME280;25393;46.108;3.390;2023-03-01T05:20:26;98297.00;;;-0.67;78.56
36502;BME280;25393;46.108;3.390;2023-03-01T05:22:55;98292.63;;;-0.67;79.06
36502;BME280;25393;46.108;3.390;2023-03-01T05:25:22;98286.59;;;-0.67;78.93
36502;BME280;25393;46.108;3.390;2023-03-01T05:27:48;98283.69;;;-0.77;78.71
36502;BME280;25393;46.108;3.390;2023-03-01T05:30:18;98287.97;;;-0.76;78.53
36502;BME280;25393;46.108;3.390;2023-03-01T05:32:47;98292.06;;;-0.72;78.81
36502;BME280;25393;46.108;3.390;2023-03-01T05:35:16;98288.56;;;-0.71;78.82
36502;BME280;25393;46.108;3.390;2023-03-01T05:37:44;98277.56;;;-0.76;78.89
36502;BME280;25393;46.108;3.390;2023-03-01T05:40:13;98282.19;;;-0.67;78.62
36502;BME280;25393;46.108;3.390;2023-03-01T05:42:44;98286.41;;;-0.64;78.65
36502;BME280;25393;46.108;3.390;2023-03-01T05:45:11;98270.41;;;-0.72;78.30
36502;BME280;25393;46.108;3.390;2023-03-01T05:47:40;98274.31;;;-0.79;78.30
36502;BME280;25393;46.108;3.390;2023-03-01T05:50:21;98277.09;;;-0.82;78.97
36502;BME280;25393;46.108;3.390;2023-03-01T05:53:00;98284.53;;;-0.76;79.23
36502;BME280;25393;46.108;3.390;2023-03-01T05:55:28;98282.50;;;-0.71;78.45
36502;BME280;25393;46.108;3.390;2023-03-01T05:57:58;98282.19;;;-0.67;79.08
36502;BME280;25393;46.108;3.390;2023-03-01T06:00:24;98272.16;;;-0.73;78.55
36502;BME280;25393;46.108;3.390;2023-03-01T06:02:55;98285.94;;;-0.71;79.02
36502;BME280;25393;46.108;3.390;2023-03-01T06:05:23;98248.56;;;-0.84;78.44
36502;BME280;25393;46.108;3.390;2023-03-01T06:07:50;98271.25;;;-0.72;78.72
36502;BME280;25393;46.108;3.390;2023-03-01T06:10:20;98272.44;;;-0.63;78.59
36502;BME280;25393;46.108;3.390;2023-03-01T06:12:48;98267.78;;;-0.58;78.33
36502;BME280;25393;46.108;3.390;2023-03-01T06:15:15;98259.41;;;-0.63;77.49
36502;BME280;25393;46.108;3.390;2023-03-01T06:17:44;98269.84;;;-0.63;77.78
36502;BME280;25393;46.108;3.390;2023-03-01T06:22:39;98263.53;;;-0.87;78.67
36502;BME280;25393;46.108;3.390;2023-03-01T06:25:07;98259.91;;;-0.85;78.65
36502;BME280;25393;46.108;3.390;2023-03-01T06:27:34;98272.81;;;-0.83;78.67
36502;BME280;25393;46.108;3.390;2023-03-01T06:30:01;98270.50;;;-0.88;79.22
36502;BME280;25393;46.108;3.390;2023-03-01T06:32:27;98256.47;;;-0.99;79.02
36502;BME280;25393;46.108;3.390;2023-03-01T06:34:54;98257.78;;;-0.92;79.45
36502;BME280;25393;46.108;3.390;2023-03-01T06:37:20;98266.22;;;-0.89;79.11
36502;BME280;25393;46.108;3.390;2023-03-01T06:39:47;98268.72;;;-0.87;79.24
36502;BME280;25393;46.108;3.390;2023-03-01T06:42:13;98280.75;;;-0.71;78.98
36502;BME280;25393;46.108;3.390;2023-03-01T06:44:40;98272.81;;;-0.69;78.46
36502;BME280;25393;46.108;3.390;2023-03-01T06:47:06;98265.28;;;-0.88;78.42
36502;BME280;25393;46.108;3.390;2023-03-01T06:49:32;98278.22;;;-0.72;78.68
36502;BME280;25393;46.108;3.390;2023-03-01T06:51:59;98274.97;;;-0.76;78.53
36502;BME280;25393;46.108;3.390;2023-03-01T06:54:25;98286.94;;;-0.73;78.52
36502;BME280;25393;46.108;3.390;2023-03-01T06:56:52;98273.59;;;-0.67;78.28
36502;BME280;25393;46.108;3.390;2023-03-01T06:59:19;98279.78;;;-0.70;78.09
36502;BME280;25393;46.108;3.390;2023-03-01T07:01:45;98283.22;;;-0.69;78.32
36502;BME280;25393;46.108;3.390;2023-03-01T07:04:12;98281.75;;;-0.87;78.32
36502;BME280;25393;46.108;3.390;2023-03-01T07:06:39;98266.97;;;-0.87;78.49
36502;BME280;25393;46.108;3.390;2023-03-01T07:09:06;98284.00;;;-0.81;79.04
36502;BME280;25393;46.108;3.390;2023-03-01T07:11:32;98275.88;;;-0.77;78.35
36502;BME280;25393;46.108;3.390;2023-03-01T07:13:59;98261.50;;;-0.82;77.92
36502;BME280;25393;46.108;3.390;2023-03-01T07:16:26;98270.78;;;-0.64;78.16
36502;BME280;25393;46.108;3.390;2023-03-01T07:18:53;98256.00;;;-0.64;77.69
36502;BME280;25393;46.108;3.390;2023-03-01T07:21:19;98269.03;;;-0.64;77.32
36502;BME280;25393;46.108;3.390;2023-03-01T07:23:47;98261.09;;;-0.62;77.14
36502;BME280;25393;46.108;3.390;2023-03-01T07:26:14;98257.66;;;-0.63;77.13
36502;BME280;25393;46.108;3.390;2023-03-01T07:28:41;98270.47;;;-0.60;77.07
36502;BME280;25393;46.108;3.390;2023-03-01T07:31:07;98259.06;;;-0.71;77.57
36502;BME280;25393;46.108;3.390;2023-03-01T07:33:34;98259.41;;;-0.63;77.71
36502;BME280;25393;46.108;3.390;2023-03-01T07:36:03;98252.63;;;-0.52;77.56
36502;BME280;25393;46.108;3.390;2023-03-01T07:38:30;98249.81;;;-0.48;77.61
36502;BME280;25393;46.108;3.390;2023-03-01T07:41:01;98247.66;;;-0.28;76.67
36502;BME280;25393;46.108;3.390;2023-03-01T07:43:29;98224.19;;;-0.28;75.93
36502;BME280;25393;46.108;3.390;2023-03-01T07:46:02;98236.19;;;-0.11;75.37
36502;BME280;25393;46.108;3.390;2023-03-01T07:48:30;98230.22;;;-0.13;75.44
36502;BME280;25393;46.108;3.390;2023-03-01T07:51:01;98244.19;;;-0.14;74.89
36502;BME280;25393;46.108;3.390;2023-03-01T07:53:31;98245.06;;;-0.01;75.43
36502;BME280;25393;46.108;3.390;2023-03-01T07:56:05;98244.44;;;-0.05;75.19
36502;BME280;25393;46.108;3.390;2023-03-01T07:58:34;98235.28;;;0.03;74.71
36502;BME280;25393;46.108;3.390;2023-03-01T08:01:06;98238.34;;;0.09;74.90
36502;BME280;25393;46.108;3.390;2023-03-01T08:03:34;98228.34;;;0.16;73.96
36502;BME280;25393;46.108;3.390;2023-03-01T08:06:02;98200.09;;;0.22;73.23
36502;BME280;25393;46.108;3.390;2023-03-01T08:08:31;98238.97;;;0.65;71.88
36502;BME280;25393;46.108;3.390;2023-03-01T08:11:02;98225.09;;;0.52;72.11
36502;BME280;25393;46.108;3.390;2023-03-01T08:13:32;98234.50;;;0.67;71.75
36502;BME280;25393;46.108;3.390;2023-03-01T08:16:07;98219.25;;;0.61;71.70
36502;BME280;25393;46.108;3.390;2023-03-01T08:18:35;98233.88;;;0.88;70.89
36502;BME280;25393;46.108;3.390;2023-03-01T08:21:03;98227.63;;;0.91;71.32
36502;BME280;25393;46.108;3.390;2023-03-01T08:23:30;98228.03;;;0.97;70.87
36502;BME280;25393;46.108;3.390;2023-03-01T08:26:04;98219.56;;;1.19;70.45
36502;BME280;25393;46.108;3.390;2023-03-01T08:28:32;98212.41;;;1.46;69.74
36502;BME280;25393;46.108;3.390;2023-03-01T08:31:02;98225.75;;;1.91;75.27
36502;BME280;25393;46.108;3.390;2023-03-01T08:33:32;98214.84;;;2.21;71.24
36502;BME280;25393;46.108;3.390;2023-03-01T08:36:05;98211.09;;;2.36;66.55
36502;BME280;25393;46.108;3.390;2023-03-01T08:38:34;98172.84;;;2.46;64.11
36502;BME280;25393;46.108;3.390;2023-03-01T08:41:02;98221.13;;;2.88;63.08
36502;BME280;25393;46.108;3.390;2023-03-01T08:43:29;98219.94;;;3.03;62.97
36502;BME280;25393;46.108;3.390;2023-03-01T08:45:56;98176.22;;;2.92;62.20
36502;BME280;25393;46.108;3.390;2023-03-01T08:48:30;98201.50;;;3.05;62.08
36502;BME280;25393;46.108;3.390;2023-03-01T08:50:56;98208.03;;;2.99;62.43
36502;BME280;25393;46.108;3.390;2023-03-01T08:53:26;98190.91;;;2.95;62.36
36502;BME280;25393;46.108;3.390;2023-03-01T08:55:55;98197.66;;;2.86;62.04
36502;BME280;25393;46.108;3.390;2023-03-01T08:58:32;98220.28;;;2.87;62.04
36502;BME280;25393;46.108;3.390;2023-03-01T09:01:07;98219.69;;;2.84;62.60
36502;BME280;25393;46.108;3.390;2023-03-01T09:03:33;98204.22;;;2.92;62.38
36502;BME280;25393;46.108;3.390;2023-03-01T09:06:01;98175.66;;;3.11;60.81
36502;BME280;25393;46.108;3.390;2023-03-01T09:08:34;98193.50;;;3.39;60.56
36502;BME280;25393;46.108;3.390;2023-03-01T09:11:02;98191.50;;;3.97;59.60
36502;BME280;25393;46.108;3.390;2023-03-01T09:13:32;98195.56;;;4.53;57.58
36502;BME280;25393;46.108;3.390;2023-03-01T09:16:01;98198.47;;;5.01;56.44
36502;BME280;25393;46.108;3.390;2023-03-01T09:18:32;98193.59;;;5.67;55.16
36502;BME280;25393;46.108;3.390;2023-03-01T09:21:08;98191.50;;;6.11;52.07
36502;BME280;25393;46.108;3.390;2023-03-01T09:23:36;98183.06;;;6.45;51.95
36502;BME280;25393;46.108;3.390;2023-03-01T09:26:10;98163.63;;;6.75;51.24
36502;BME280;25393;46.108;3.390;2023-03-01T09:28:37;98151.34;;;7.03;50.42
36502;BME280;25393;46.108;3.390;2023-03-01T09:31:04;98158.91;;;7.52;48.29
36502;BME280;25393;46.108;3.390;2023-03-01T09:33:32;98166.47;;;7.65;47.59
36502;BME280;25393;46.108;3.390;2023-03-01T09:36:04;98171.56;;;7.49;46.90
36502;BME280;25393;46.108;3.390;2023-03-01T09:38:31;98149.81;;;7.10;47.00
36502;BME280;25393;46.108;3.390;2023-03-01T09:41:01;98172.13;;;7.43;48.86
36502;BME280;25393;46.108;3.390;2023-03-01T09:49:17;98134.41;;;7.87;46.84
36502;BME280;25393;46.108;3.390;2023-03-01T09:55:00;98144.22;;;8.48;46.42
36502;BME280;25393;46.108;3.390;2023-03-01T10:00:42;98138.19;;;9.07;44.75
36502;BME280;25393;46.108;3.390;2023-03-01T10:03:40;98131.28;;;9.14;44.14
36502;BME280;25393;46.108;3.390;2023-03-01T10:06:21;98130.59;;;9.46;43.61
36502;BME280;25393;46.108;3.390;2023-03-01T10:09:16;98107.19;;;9.75;42.91
36502;BME280;25393;46.108;3.390;2023-03-01T10:11:54;98112.94;;;10.37;42.63
36502;BME280;25393;46.108;3.390;2023-03-01T10:14:41;98106.75;;;10.77;41.20
36502;BME280;25393;46.108;3.390;2023-03-01T10:17:37;98120.50;;;10.96;41.12
36502;BME280;25393;46.108;3.390;2023-03-01T10:23:08;98120.63;;;11.11;41.69
36502;BME280;25393;46.108;3.390;2023-03-01T10:28:17;98113.84;;;11.86;39.71
36502;BME280;25393;46.108;3.390;2023-03-01T10:30:46;98100.50;;;12.02;39.22
36502;BME280;25393;46.108;3.390;2023-03-01T10:33:26;98102.13;;;12.26;38.77
36502;BME280;25393;46.108;3.390;2023-03-01T10:35:57;98055.44;;;12.09;37.69
36502;BME280;25393;46.108;3.390;2023-03-01T10:38:31;98089.13;;;11.86;38.62
36502;BME280;25393;46.108;3.390;2023-03-01T10:41:05;98086.66;;;12.07;39.22
36502;BME280;25393;46.108;3.390;2023-03-01T10:43:44;98087.38;;;12.24;39.13
36502;BME280;25393;46.108;3.390;2023-03-01T10:46:27;98087.81;;;12.50;37.77
36502;BME280;25393;46.108;3.390;2023-03-01T10:49:20;98085.06;;;12.43;38.29
36502;BME280;25393;46.108;3.390;2023-03-01T10:51:49;98082.00;;;12.69;39.33
36502;BME280;25393;46.108;3.390;2023-03-01T10:54:26;98082.47;;;12.13;38.77
36502;BME280;25393;46.108;3.390;2023-03-01T10:57:03;98078.28;;;12.41;38.24
36502;BME280;25393;46.108;3.390;2023-03-01T11:02:15;98049.28;;;13.13;37.68
36502;BME280;25393;46.108;3.390;2023-03-01T11:05:00;98068.19;;;13.47;36.90
36502;BME280;25393;46.108;3.390;2023-03-01T11:07:47;98066.16;;;13.05;36.78
36502;BME280;25393;46.108;3.390;2023-03-01T11:10:22;98054.41;;;12.99;37.95
36502;BME280;25393;46.108;3.390;2023-03-01T11:12:56;98058.78;;;13.15;37.73
36502;BME280;25393;46.108;3.390;2023-03-01T11:15:32;98058.94;;;13.28;36.89
36502;BME280;25393;46.108;3.390;2023-03-01T11:17:59;97997.94;;;13.12;36.36
36502;BME280;25393;46.108;3.390;2023-03-01T11:20:39;98054.16;;;12.94;36.00
36502;BME280;25393;46.108;3.390;2023-03-01T11:23:12;98060.31;;;12.43;38.44
36502;BME280;25393;46.108;3.390;2023-03-01T11:25:47;98038.47;;;12.33;38.98
36502;BME280;25393;46.108;3.390;2023-03-01T11:28:17;98060.63;;;12.92;37.39
36502;BME280;25393;46.108;3.390;2023-03-01T11:31:05;98064.50;;;12.89;38.00
36502;BME280;25393;46.108;3.390;2023-03-01T11:38:42;98039.72;;;14.05;35.68
36502;BME280;25393;46.108;3.390;2023-03-01T11:41:32;98040.88;;;14.38;36.40
36502;BME280;25393;46.108;3.390;2023-03-01T11:44:26;98041.38;;;14.06;34.89
36502;BME280;25393;46.108;3.390;2023-03-01T11:57:57;98025.59;;;13.47;36.34
36502;BME280;25393;46.108;3.390;2023-03-01T12:03:57;98013.53;;;13.15;36.33
36502;BME280;25393;46.108;3.390;2023-03-01T12:09:27;98021.41;;;12.27;37.78
36502;BME280;25393;46.108;3.390;2023-03-01T12:26:32;98007.63;;;12.76;38.74
36502;BME280;25393;46.108;3.390;2023-03-01T12:48:43;97988.91;;;11.26;39.49
36502;BME280;25393;46.108;3.390;2023-03-01T12:51:16;97985.38;;;11.03;40.91
36502;BME280;25393;46.108;3.390;2023-03-01T12:53:47;97968.78;;;11.63;40.10
36502;BME280;25393;46.108;3.390;2023-03-01T12:56:20;97962.88;;;11.52;40.11
36502;BME280;25393;46.108;3.390;2023-03-01T13:04:37;97964.16;;;12.54;38.49
36502;BME280;25393;46.108;3.390;2023-03-01T13:07:19;97961.50;;;12.39;39.96
36502;BME280;25393;46.108;3.390;2023-03-01T13:10:24;97954.81;;;12.43;39.03
36502;BME280;25393;46.108;3.390;2023-03-01T13:26:08;97946.69;;;10.07;43.49
36502;BME280;25393;46.108;3.390;2023-03-01T13:34:02;97931.69;;;9.99;44.03
36502;BME280;25393;46.108;3.390;2023-03-01T13:39:05;97937.63;;;10.72;44.27
36502;BME280;25393;46.108;3.390;2023-03-01T13:41:55;97933.69;;;10.60;43.62
36502;BME280;25393;46.108;3.390;2023-03-01T13:44:32;97911.78;;;10.27;44.22
36502;BME280;25393;46.108;3.390;2023-03-01T13:49:56;97872.06;;;11.42;42.06
36502;BME280;25393;46.108;3.390;2023-03-01T13:52:42;97915.88;;;11.84;41.17
36502;BME280;25393;46.108;3.390;2023-03-01T13:55:32;97913.16;;;11.92;41.27
36502;BME280;25393;46.108;3.390;2023-03-01T13:58:05;97890.88;;;11.93;41.36
36502;BME280;25393;46.108;3.390;2023-03-01T14:00:41;97893.97;;;12.34;40.65
36502;BME280;25393;46.108;3.390;2023-03-01T14:05:34;97890.38;;;12.12;41.00
36502;BME280;25393;46.108;3.390;2023-03-01T14:08:03;97897.56;;;12.03;40.34
36502;BME280;25393;46.108;3.390;2023-03-01T14:10:54;97883.09;;;11.69;41.73
36502;BME280;25393;46.108;3.390;2023-03-01T14:13:40;97902.66;;;11.76;41.94
36502;BME280;25393;46.108;3.390;2023-03-01T14:19:25;97904.31;;;11.31;42.54
36502;BME280;25393;46.108;3.390;2023-03-01T14:22:20;97847.31;;;10.74;42.68
36502;BME280;25393;46.108;3.390;2023-03-01T14:24:56;97875.69;;;10.65;41.99
36502;BME280;25393;46.108;3.390;2023-03-01T14:27:35;97903.34;;;10.24;43.85
36502;BME280;25393;46.108;3.390;2023-03-01T14:32:57;97904.56;;;9.73;45.29
36502;BME280;25393;46.108;3.390;2023-03-01T14:35:35;97905.22;;;9.67;45.11
36502;BME280;25393;46.108;3.390;2023-03-01T14:38:03;97901.75;;;9.66;46.72
36502;BME280;25393;46.108;3.390;2023-03-01T14:40:35;97888.66;;;9.65;44.85
36502;BME280;25393;46.108;3.390;2023-03-01T14:43:10;97900.72;;;9.19;45.24
36502;BME280;25393;46.108;3.390;2023-03-01T14:45:37;97909.22;;;8.80;46.81
36502;BME280;25393;46.108;3.390;2023-03-01T14:48:05;97910.59;;;8.42;48.54
36502;BME280;25393;46.108;3.390;2023-03-01T14:50:41;97911.59;;;8.24;48.64
36502;BME280;25393;46.108;3.390;2023-03-01T14:53:25;97911.59;;;8.24;48.89
36502;BME280;25393;46.108;3.390;2023-03-01T14:56:04;97903.50;;;8.17;49.67
36502;BME280;25393;46.108;3.390;2023-03-01T14:58:32;97852.06;;;7.95;48.86
36502;BME280;25393;46.108;3.390;2023-03-01T15:01:02;97882.03;;;7.86;49.79
36502;BME280;25393;46.108;3.390;2023-03-01T15:03:44;97916.19;;;7.88;49.71
36502;BME280;25393;46.108;3.390;2023-03-01T15:06:15;97911.94;;;7.69;50.23
36502;BME280;25393;46.108;3.390;2023-03-01T15:08:47;97901.75;;;7.57;49.90
36502;BME280;25393;46.108;3.390;2023-03-01T15:13:44;97887.16;;;7.62;50.31
36502;BME280;25393;46.108;3.390;2023-03-01T15:18:52;97916.97;;;7.80;50.51
36502;BME280;25393;46.108;3.390;2023-03-01T15:24:15;97860.19;;;7.07;50.27
36502;BME280;25393;46.108;3.390;2023-03-01T15:26:52;97908.38;;;7.35;50.92
36502;BME280;25393;46.108;3.390;2023-03-01T15:29:30;97898.41;;;7.29;50.65
36502;BME280;25393;46.108;3.390;2023-03-01T15:32:02;97902.63;;;7.22;50.97
36502;BME280;25393;46.108;3.390;2023-03-01T15:34:37;97900.47;;;7.17;52.14
36502;BME280;25393;46.108;3.390;2023-03-01T15:37:46;97892.56;;;7.17;51.79
36502;BME280;25393;46.108;3.390;2023-03-01T15:40:22;97900.38;;;7.27;51.52
36502;BME280;25393;46.108;3.390;2023-03-01T15:43:03;97833.06;;;6.97;51.53
36502;BME280;25393;46.108;3.390;2023-03-01T15:45:33;97869.81;;;7.16;51.70
36502;BME280;25393;46.108;3.390;2023-03-01T15:48:02;97903.06;;;7.52;51.04